sensor_id;sensor_type;location;lat;lon;timestamp;temperature;humidity
17968;DHT22;9109;48.050;11.696;2022-08-19T03:52:00;20.60;99.90
17968;DHT22;9109;48.050;11.696;2022-08-19T03:55:26;20.50;99.90
17968;DHT22;9109;48.050;11.696;2022-08-19T03:58:41;20.40;99.90
17968;DHT22;9109;48.050;11.696;2022-08-19T04:02:22;20.40;99.90
17968;DHT22;9109;48.050;11.696;2022-08-19T04:05:53;20.50;99.90
17968;DHT22;9109;48.050;11.696;2022-08-19T04:09:32;20.60;99.90
17968;DHT22;9109;48.050;11.696;2022-08-19T04:12:59;20.70;99.90
17968;DHT22;9109;48.050;11.696;2022-08-19T04:16:11;20.70;99.90
17968;DHT22;9109;48.050;11.696;2022-08-19T04:19:29;20.70;99.90
17968;DHT22;9109;48.050;11.696;2022-08-19T04:22:45;20.80;99.90
17968;DHT22;9109;48.050;11.696;2022-08-19T04:26:14;20.70;99.90
17968;DHT22;9109;48.050;11.696;2022-08-19T04:30:10;20.60;99.90
17968;DHT22;9109;48.050;11.696;2022-08-19T04:33:19;20.70;99.90
17968;DHT22;9109;48.050;11.696;2022-08-19T04:36:40;20.80;99.90
17968;DHT22;9109;48.050;11.696;2022-08-19T04:39:49;20.80;99.90
17968;DHT22;9109;48.050;11.696;2022-08-19T04:43:20;20.70;99.90
17968;DHT22;9109;48.050;11.696;2022-08-19T04:46:36;20.70;99.90
17968;DHT22;9109;48.050;11.696;2022-08-19T04:50:00;20.70;99.90
17968;DHT22;9109;48.050;11.696;2022-08-19T04:53:41;20.60;99.90
17968;DHT22;9109;48.050;11.696;2022-08-19T04:56:56;20.70;99.90
17968;DHT22;9109;48.050;11.696;2022-08-19T05:00:33;20.70;99.90
17968;DHT22;9109;48.050;11.696;2022-08-19T05:03:52;20.70;99.90
17968;DHT22;9109;48.050;11.696;2022-08-19T05:07:13;20.70;99.90
17968;DHT22;9109;48.050;11.696;2022-08-19T05:10:20;20.70;99.90
17968;DHT22;9109;48.050;11.696;2022-08-19T05:13:49;20.60;99.90
17968;DHT22;9109;48.050;11.696;2022-08-19T05:17:32;20.60;99.90
17968;DHT22;9109;48.050;11.696;2022-08-19T05:21:04;20.70;99.90
17968;DHT22;9109;48.050;11.696;2022-08-19T05:24:30;20.70;99.90
17968;DHT22;9109;48.050;11.696;2022-08-19T05:27:55;20.70;99.90
17968;DHT22;9109;48.050;11.696;2022-08-19T05:31:17;20.70;99.90
17968;DHT22;9109;48.050;11.696;2022-08-19T05:38:17;20.60;99.90
17968;DHT22;9109;48.050;11.696;2022-08-19T05:42:01;20.60;99.90
17968;DHT22;9109;48.050;11.696;2022-08-19T05:45:43;20.50;99.90
17968;DHT22;9109;48.050;11.696;2022-08-19T06:00:46;20.40;99.90
17968;DHT22;9109;48.050;11.696;2022-08-19T06:04:48;20.40;99.90
17968;DHT22;9109;48.050;11.696;2022-08-19T06:08:17;20.50;99.90
17968;DHT22;9109;48.050;11.696;2022-08-19T06:12:05;20.60;99.90
17968;DHT22;9109;48.050;11.696;2022-08-19T06:16:06;20.60;99.90
17968;DHT22;9109;48.050;11.696;2022-08-19T06:19:33;20.50;99.90
17968;DHT22;9109;48.050;11.696;2022-08-19T06:26:38;20.60;99.90
17968;DHT22;9109;48.050;11.696;2022-08-19T06:29:42;20.60;99.90
17968;DHT22;9109;48.050;11.696;2022-08-19T06:32:45;20.60;99.90
17968;DHT22;9109;48.050;11.696;2022-08-19T06:35:47;20.60;99.90
17968;DHT22;9109;48.050;11.696;2022-08-19T06:38:49;20.70;99.90
17968;DHT22;9109;48.050;11.696;2022-08-19T06:41:54;20.70;99.90
17968;DHT22;9109;48.050;11.696;2022-08-19T06:44:57;20.70;99.90
17968;DHT22;9109;48.050;11.696;2022-08-19T06:48:00;20.70;99.90
17968;DHT22;9109;48.050;11.696;2022-08-19T06:51:02;20.70;99.90
17968;DHT22;9109;48.050;11.696;2022-08-19T06:54:06;20.70;99.90
17968;DHT22;9109;48.050;11.696;2022-08-19T06:57:08;20.60;99.90
17968;DHT22;9109;48.050;11.696;2022-08-19T07:00:15;20.70;99.90
17968;DHT22;9109;48.050;11.696;2022-08-19T07:03:19;20.60;99.90
17968;DHT22;9109;48.050;11.696;2022-08-19T07:06:21;20.60;99.90
17968;DHT22;9109;48.050;11.696;2022-08-19T07:09:23;20.50;99.90
17968;DHT22;9109;48.050;11.696;2022-08-19T07:12:25;20.50;99.90
17968;DHT22;9109;48.050;11.696;2022-08-19T07:15:28;20.50;99.90
17968;DHT22;9109;48.050;11.696;2022-08-19T07:18:31;20.50;99.90
17968;DHT22;9109;48.050;11.696;2022-08-19T07:21:33;20.50;99.90
17968;DHT22;9109;48.050;11.696;2022-08-19T07:24:37;20.50;99.90
17968;DHT22;9109;48.050;11.696;2022-08-19T07:27:40;20.60;99.90
17968;DHT22;9109;48.050;11.696;2022-08-19T07:30:42;20.70;99.90
17968;DHT22;9109;48.050;11.696;2022-08-19T07:33:46;20.70;99.90
17968;DHT22;9109;48.050;11.696;2022-08-19T07:36:49;20.70;99.90
17968;DHT22;9109;48.050;11.696;2022-08-19T07:39:51;20.80;99.90
17968;DHT22;9109;48.050;11.696;2022-08-19T07:42:53;20.70;99.90
17968;DHT22;9109;48.050;11.696;2022-08-19T07:45:55;20.80;99.90
17968;DHT22;9109;48.050;11.696;2022-08-19T07:48:59;20.80;99.90
17968;DHT22;9109;48.050;11.696;2022-08-19T07:52:05;20.90;99.90
17968;DHT22;9109;48.050;11.696;2022-08-19T07:55:09;20.90;99.90
17968;DHT22;9109;48.050;11.696;2022-08-19T07:58:14;20.90;99.90
17968;DHT22;9109;48.050;11.696;2022-08-19T08:01:18;21.00;99.90
17968;DHT22;9109;48.050;11.696;2022-08-19T08:04:21;21.00;99.90
17968;DHT22;9109;48.050;11.696;2022-08-19T08:07:40;21.00;99.90
17968;DHT22;9109;48.050;11.696;2022-08-19T08:11:00;21.00;99.90
17968;DHT22;9109;48.050;11.696;2022-08-19T08:14:02;20.90;99.90
17968;DHT22;9109;48.050;11.696;2022-08-19T08:17:06;20.80;99.90
17968;DHT22;9109;48.050;11.696;2022-08-19T08:20:10;20.80;99.90
17968;DHT22;9109;48.050;11.696;2022-08-19T08:23:12;20.70;99.90
17968;DHT22;9109;48.050;11.696;2022-08-19T08:26:26;20.70;99.90
17968;DHT22;9109;48.050;11.696;2022-08-19T08:29:30;20.80;99.90
17968;DHT22;9109;48.050;11.696;2022-08-19T08:32:33;20.90;99.90
17968;DHT22;9109;48.050;11.696;2022-08-19T08:35:36;20.90;99.90
17968;DHT22;9109;48.050;11.696;2022-08-19T08:38:41;20.80;99.90
17968;DHT22;9109;48.050;11.696;2022-08-19T08:41:49;20.80;99.90
17968;DHT22;9109;48.050;11.696;2022-08-19T08:44:58;20.80;99.90
17968;DHT22;9109;48.050;11.696;2022-08-19T08:48:06;20.80;99.90
17968;DHT22;9109;48.050;11.696;2022-08-19T08:51:22;20.80;99.90
17968;DHT22;9109;48.050;11.696;2022-08-19T08:54:28;20.80;99.90
17968;DHT22;9109;48.050;11.696;2022-08-19T08:57:36;20.80;99.90
17968;DHT22;9109;48.050;11.696;2022-08-19T09:00:47;20.80;99.90
17968;DHT22;9109;48.050;11.696;2022-08-19T09:03:49;20.80;99.90
17968;DHT22;9109;48.050;11.696;2022-08-19T09:07:01;20.80;99.90
17968;DHT22;9109;48.050;11.696;2022-08-19T09:10:13;20.80;99.90
17968;DHT22;9109;48.050;11.696;2022-08-19T09:13:23;20.90;99.90
17968;DHT22;9109;48.050;11.696;2022-08-19T09:16:27;20.80;99.90
17968;DHT22;9109;48.050;11.696;2022-08-19T09:19:29;20.90;99.90
17968;DHT22;9109;48.050;11.696;2022-08-19T09:22:34;20.90;99.90
17968;DHT22;9109;48.050;11.696;2022-08-19T09:25:36;21.00;99.90
17968;DHT22;9109;48.050;11.696;2022-08-19T09:28:40;21.00;99.90
17968;DHT22;9109;48.050;11.696;2022-08-19T09:31:44;21.00;99.90
17968;DHT22;9109;48.050;11.696;2022-08-19T09:34:46;21.10;99.90
17968;DHT22;9109;48.050;11.696;2022-08-19T09:37:49;21.20;99.90
17968;DHT22;9109;48.050;11.696;2022-08-19T09:40:52;21.30;99.90
17968;DHT22;9109;48.050;11.696;2022-08-19T09:43:55;21.40;99.90
17968;DHT22;9109;48.050;11.696;2022-08-19T09:46:58;21.40;99.90
17968;DHT22;9109;48.050;11.696;2022-08-19T09:50:00;21.60;99.90
17968;DHT22;9109;48.050;11.696;2022-08-19T09:53:04;21.80;99.90
17968;DHT22;9109;48.050;11.696;2022-08-19T09:56:06;21.80;99.90
17968;DHT22;9109;48.050;11.696;2022-08-19T09:59:08;21.90;99.90
17968;DHT22;9109;48.050;11.696;2022-08-19T10:02:12;21.90;99.90
17968;DHT22;9109;48.050;11.696;2022-08-19T10:05:14;21.90;99.90
17968;DHT22;9109;48.050;11.696;2022-08-19T10:08:36;21.90;99.90
17968;DHT22;9109;48.050;11.696;2022-08-19T10:11:41;22.00;99.90
17968;DHT22;9109;48.050;11.696;2022-08-19T10:14:43;21.90;99.90
17968;DHT22;9109;48.050;11.696;2022-08-19T10:17:46;21.90;99.90
17968;DHT22;9109;48.050;11.696;2022-08-19T10:20:49;22.00;99.90
17968;DHT22;9109;48.050;11.696;2022-08-19T10:23:56;22.10;99.90
17968;DHT22;9109;48.050;11.696;2022-08-19T10:26:59;22.20;99.90
17968;DHT22;9109;48.050;11.696;2022-08-19T10:30:04;22.20;99.90
17968;DHT22;9109;48.050;11.696;2022-08-19T10:33:07;22.20;99.90
17968;DHT22;9109;48.050;11.696;2022-08-19T10:36:11;22.20;99.90
17968;DHT22;9109;48.050;11.696;2022-08-19T10:39:19;22.20;99.90
17968;DHT22;9109;48.050;11.696;2022-08-19T10:42:21;22.30;99.90
17968;DHT22;9109;48.050;11.696;2022-08-19T10:45:23;22.30;99.90
17968;DHT22;9109;48.050;11.696;2022-08-19T10:48:27;22.40;99.90
17968;DHT22;9109;48.050;11.696;2022-08-19T10:51:29;22.30;99.90
17968;DHT22;9109;48.050;11.696;2022-08-19T10:54:50;22.30;99.90
17968;DHT22;9109;48.050;11.696;2022-08-19T10:58:11;22.30;99.90
17968;DHT22;9109;48.050;11.696;2022-08-19T11:01:14;22.40;99.90
17968;DHT22;9109;48.050;11.696;2022-08-19T11:04:16;22.40;99.90
17968;DHT22;9109;48.050;11.696;2022-08-19T11:07:18;22.50;99.90
17968;DHT22;9109;48.050;11.696;2022-08-19T11:10:23;22.50;99.90
17968;DHT22;9109;48.050;11.696;2022-08-19T11:13:24;22.60;99.90
17968;DHT22;9109;48.050;11.696;2022-08-19T11:16:26;22.60;99.90
17968;DHT22;9109;48.050;11.696;2022-08-19T11:19:30;22.70;99.90
17968;DHT22;9109;48.050;11.696;2022-08-19T11:22:32;22.80;99.90
17968;DHT22;9109;48.050;11.696;2022-08-19T11:25:38;22.80;99.90
17968;DHT22;9109;48.050;11.696;2022-08-19T11:28:40;22.70;99.90
17968;DHT22;9109;48.050;11.696;2022-08-19T11:31:44;22.70;99.90
17968;DHT22;9109;48.050;11.696;2022-08-19T11:34:46;22.60;99.90
17968;DHT22;9109;48.050;11.696;2022-08-19T11:37:48;22.60;99.90
17968;DHT22;9109;48.050;11.696;2022-08-19T11:40:56;22.70;99.90
17968;DHT22;9109;48.050;11.696;2022-08-19T11:43:58;22.80;99.90
17968;DHT22;9109;48.050;11.696;2022-08-19T11:47:00;23.00;99.90
17968;DHT22;9109;48.050;11.696;2022-08-19T11:50:02;23.20;99.90
17968;DHT22;9109;48.050;11.696;2022-08-19T11:53:04;23.50;99.90
17968;DHT22;9109;48.050;11.696;2022-08-19T11:56:08;23.70;99.90
17968;DHT22;9109;48.050;11.696;2022-08-19T11:59:10;23.90;99.90
17968;DHT22;9109;48.050;11.696;2022-08-19T12:02:12;24.00;99.90
17968;DHT22;9109;48.050;11.696;2022-08-19T12:05:16;24.20;99.90
17968;DHT22;9109;48.050;11.696;2022-08-19T12:08:18;24.20;99.90
17968;DHT22;9109;48.050;11.696;2022-08-19T12:11:22;24.10;99.90
17968;DHT22;9109;48.050;11.696;2022-08-19T12:14:24;23.90;99.90
17968;DHT22;9109;48.050;11.696;2022-08-19T12:17:27;23.60;99.90
17968;DHT22;9109;48.050;11.696;2022-08-19T12:20:29;23.30;99.90
17968;DHT22;9109;48.050;11.696;2022-08-19T12:23:31;23.20;99.90
17968;DHT22;9109;48.050;11.696;2022-08-19T12:26:35;23.00;99.90
17968;DHT22;9109;48.050;11.696;2022-08-19T12:29:37;22.90;99.90
17968;DHT22;9109;48.050;11.696;2022-08-19T12:32:39;22.70;99.90
17968;DHT22;9109;48.050;11.696;2022-08-19T12:35:41;22.70;99.90
17968;DHT22;9109;48.050;11.696;2022-08-19T12:38:44;22.70;99.90
17968;DHT22;9109;48.050;11.696;2022-08-19T12:41:48;22.70;99.90
17968;DHT22;9109;48.050;11.696;2022-08-19T12:44:50;22.50;99.90
17968;DHT22;9109;48.050;11.696;2022-08-19T12:47:53;22.50;99.90
17968;DHT22;9109;48.050;11.696;2022-08-19T12:50:55;22.40;99.90
17968;DHT22;9109;48.050;11.696;2022-08-19T12:53:57;22.10;99.90
17968;DHT22;9109;48.050;11.696;2022-08-19T12:57:05;22.00;99.90
17968;DHT22;9109;48.050;11.696;2022-08-19T13:00:11;21.80;99.90
17968;DHT22;9109;48.050;11.696;2022-08-19T13:03:14;21.80;99.90
17968;DHT22;9109;48.050;11.696;2022-08-19T13:06:16;21.70;99.90
17968;DHT22;9109;48.050;11.696;2022-08-19T13:09:18;21.90;99.90
17968;DHT22;9109;48.050;11.696;2022-08-19T13:12:21;22.20;99.90
17968;DHT22;9109;48.050;11.696;2022-08-19T13:15:27;22.30;99.90
17968;DHT22;9109;48.050;11.696;2022-08-19T13:18:31;22.50;99.90
17968;DHT22;9109;48.050;11.696;2022-08-19T13:21:33;22.70;99.90
17968;DHT22;9109;48.050;11.696;2022-08-19T13:24:35;22.70;99.90
17968;DHT22;9109;48.050;11.696;2022-08-19T13:27:40;22.80;99.90
17968;DHT22;9109;48.050;11.696;2022-08-19T13:30:42;22.70;99.90
17968;DHT22;9109;48.050;11.696;2022-08-19T13:34:05;22.80;99.90
17968;DHT22;9109;48.050;11.696;2022-08-19T13:37:07;23.10;99.90
17968;DHT22;9109;48.050;11.696;2022-08-19T13:40:11;23.30;99.90
17968;DHT22;9109;48.050;11.696;2022-08-19T13:43:17;23.10;99.90
17968;DHT22;9109;48.050;11.696;2022-08-19T13:46:20;22.90;99.90
17968;DHT22;9109;48.050;11.696;2022-08-19T13:49:22;22.90;99.90
17968;DHT22;9109;48.050;11.696;2022-08-19T13:52:24;23.10;99.90
17968;DHT22;9109;48.050;11.696;2022-08-19T13:55:26;23.40;99.90
17968;DHT22;9109;48.050;11.696;2022-08-19T13:58:29;23.50;99.90
17968;DHT22;9109;48.050;11.696;2022-08-19T14:01:32;23.40;99.90
17968;DHT22;9109;48.050;11.696;2022-08-19T14:04:34;23.50;99.90
17968;DHT22;9109;48.050;11.696;2022-08-19T14:07:37;23.30;99.90
17968;DHT22;9109;48.050;11.696;2022-08-19T14:10:39;23.30;99.90
17968;DHT22;9109;48.050;11.696;2022-08-19T14:13:44;23.10;99.90
17968;DHT22;9109;48.050;11.696;2022-08-19T14:16:46;23.10;99.90
17968;DHT22;9109;48.050;11.696;2022-08-19T14:19:48;23.40;99.90
17968;DHT22;9109;48.050;11.696;2022-08-19T14:22:51;23.50;99.90
17968;DHT22;9109;48.050;11.696;2022-08-19T14:25:53;23.50;99.90
17968;DHT22;9109;48.050;11.696;2022-08-19T14:28:58;23.70;99.90
17968;DHT22;9109;48.050;11.696;2022-08-19T14:32:02;24.00;99.90
17968;DHT22;9109;48.050;11.696;2022-08-19T14:35:05;24.00;99.90
17968;DHT22;9109;48.050;11.696;2022-08-19T14:38:15;24.10;99.90
17968;DHT22;9109;48.050;11.696;2022-08-19T14:41:19;24.00;99.90
17968;DHT22;9109;48.050;11.696;2022-08-19T14:44:22;23.70;99.90
17968;DHT22;9109;48.050;11.696;2022-08-19T14:47:24;23.60;99.90
17968;DHT22;9109;48.050;11.696;2022-08-19T14:50:27;23.50;99.90
17968;DHT22;9109;48.050;11.696;2022-08-19T14:53:29;23.40;99.90
17968;DHT22;9109;48.050;11.696;2022-08-19T14:56:31;23.40;99.90
17968;DHT22;9109;48.050;11.696;2022-08-19T14:59:35;23.30;99.90
17968;DHT22;9109;48.050;11.696;2022-08-19T15:02:37;23.10;99.90
17968;DHT22;9109;48.050;11.696;2022-08-19T15:05:39;22.90;99.90
17968;DHT22;9109;48.050;11.696;2022-08-19T15:08:42;22.90;99.90
17968;DHT22;9109;48.050;11.696;2022-08-19T15:11:45;22.90;99.90
17968;DHT22;9109;48.050;11.696;2022-08-19T15:14:49;22.90;99.90
17968;DHT22;9109;48.050;11.696;2022-08-19T15:17:51;22.80;99.90
17968;DHT22;9109;48.050;11.696;2022-08-19T15:20:53;22.90;99.90
17968;DHT22;9109;48.050;11.696;2022-08-19T15:23:56;23.00;99.90
17968;DHT22;9109;48.050;11.696;2022-08-19T15:26:58;23.00;99.90
17968;DHT22;9109;48.050;11.696;2022-08-19T15:30:03;23.20;99.90
17968;DHT22;9109;48.050;11.696;2022-08-19T15:33:05;23.30;99.90
17968;DHT22;9109;48.050;11.696;2022-08-19T15:36:07;23.20;99.90
17968;DHT22;9109;48.050;11.696;2022-08-19T15:39:09;22.70;99.90
17968;DHT22;9109;48.050;11.696;2022-08-19T15:42:11;22.50;99.90
17968;DHT22;9109;48.050;11.696;2022-08-19T15:45:15;22.40;99.90
17968;DHT22;9109;48.050;11.696;2022-08-19T15:48:18;22.30;99.90
17968;DHT22;9109;48.050;11.696;2022-08-19T15:51:20;22.30;99.90
17968;DHT22;9109;48.050;11.696;2022-08-19T15:54:22;22.30;99.90
17968;DHT22;9109;48.050;11.696;2022-08-19T15:57:24;22.30;99.90
17968;DHT22;9109;48.050;11.696;2022-08-19T16:00:45;22.30;99.90
17968;DHT22;9109;48.050;11.696;2022-08-19T16:04:05;22.40;99.90
17968;DHT22;9109;48.050;11.696;2022-08-19T16:07:24;22.40;99.90
17968;DHT22;9109;48.050;11.696;2022-08-19T16:10:27;22.40;99.90
17968;DHT22;9109;48.050;11.696;2022-08-19T16:13:29;22.50;99.90
17968;DHT22;9109;48.050;11.696;2022-08-19T16:16:34;22.50;99.90
17968;DHT22;9109;48.050;11.696;2022-08-19T16:19:36;22.50;99.90
17968;DHT22;9109;48.050;11.696;2022-08-19T16:22:40;22.30;99.90
17968;DHT22;9109;48.050;11.696;2022-08-19T16:25:42;22.40;99.90
17968;DHT22;9109;48.050;11.696;2022-08-19T16:28:44;22.50;99.90
17968;DHT22;9109;48.050;11.696;2022-08-19T16:31:49;22.50;99.90
17968;DHT22;9109;48.050;11.696;2022-08-19T16:34:53;22.60;99.90
17968;DHT22;9109;48.050;11.696;2022-08-19T16:37:55;22.50;99.90
17968;DHT22;9109;48.050;11.696;2022-08-19T16:40:57;22.50;99.90
17968;DHT22;9109;48.050;11.696;2022-08-19T16:44:01;22.50;99.90
17968;DHT22;9109;48.050;11.696;2022-08-19T16:47:04;22.50;99.90
17968;DHT22;9109;48.050;11.696;2022-08-19T16:50:09;22.50;99.90
17968;DHT22;9109;48.050;11.696;2022-08-19T16:53:11;22.50;99.90
17968;DHT22;9109;48.050;11.696;2022-08-19T16:56:13;22.50;99.90
17968;DHT22;9109;48.050;11.696;2022-08-19T16:59:15;22.40;99.90
17968;DHT22;9109;48.050;11.696;2022-08-19T17:02:20;22.40;99.90
17968;DHT22;9109;48.050;11.696;2022-08-19T17:05:23;22.30;99.90
17968;DHT22;9109;48.050;11.696;2022-08-19T17:08:25;22.20;99.90
17968;DHT22;9109;48.050;11.696;2022-08-19T17:11:29;22.10;99.90
17968;DHT22;9109;48.050;11.696;2022-08-19T17:14:32;22.10;99.90
17968;DHT22;9109;48.050;11.696;2022-08-19T17:17:35;21.90;99.90
17968;DHT22;9109;48.050;11.696;2022-08-19T17:20:38;21.80;99.90
17968;DHT22;9109;48.050;11.696;2022-08-19T17:23:40;21.80;99.90
17968;DHT22;9109;48.050;11.696;2022-08-19T17:26:42;21.70;99.90
17968;DHT22;9109;48.050;11.696;2022-08-19T17:29:44;21.70;99.90
17968;DHT22;9109;48.050;11.696;2022-08-19T17:32:48;21.60;99.90
17968;DHT22;9109;48.050;11.696;2022-08-19T17:35:50;21.60;99.90
17968;DHT22;9109;48.050;11.696;2022-08-19T17:38:53;21.50;99.90
17968;DHT22;9109;48.050;11.696;2022-08-19T17:41:55;21.50;99.90
17968;DHT22;9109;48.050;11.696;2022-08-19T17:44:57;21.50;99.90
17968;DHT22;9109;48.050;11.696;2022-08-19T17:48:01;21.40;99.90
17968;DHT22;9109;48.050;11.696;2022-08-19T17:51:12;21.30;99.90
17968;DHT22;9109;48.050;11.696;2022-08-19T17:54:18;21.10;99.90
17968;DHT22;9109;48.050;11.696;2022-08-19T17:57:20;21.00;99.90
17968;DHT22;9109;48.050;11.696;2022-08-19T18:00:22;20.90;99.90
17968;DHT22;9109;48.050;11.696;2022-08-19T18:03:25;20.90;99.90
17968;DHT22;9109;48.050;11.696;2022-08-19T18:06:30;20.90;99.90
17968;DHT22;9109;48.050;11.696;2022-08-19T18:09:33;20.80;99.90
17968;DHT22;9109;48.050;11.696;2022-08-19T18:12:36;20.70;99.90
17968;DHT22;9109;48.050;11.696;2022-08-19T18:15:38;20.70;99.90
17968;DHT22;9109;48.050;11.696;2022-08-19T18:18:42;20.70;99.90
17968;DHT22;9109;48.050;11.696;2022-08-19T18:21:44;20.70;99.90
17968;DHT22;9109;48.050;11.696;2022-08-19T18:24:46;20.70;99.90
17968;DHT22;9109;48.050;11.696;2022-08-19T18:27:48;20.60;99.90
17968;DHT22;9109;48.050;11.696;2022-08-19T18:30:51;20.50;99.90
17968;DHT22;9109;48.050;11.696;2022-08-19T18:33:54;20.50;99.90
17968;DHT22;9109;48.050;11.696;2022-08-19T18:36:56;20.50;99.90
17968;DHT22;9109;48.050;11.696;2022-08-19T18:39:58;20.50;99.90
17968;DHT22;9109;48.050;11.696;2022-08-19T18:43:17;20.40;99.90
17968;DHT22;9109;48.050;11.696;2022-08-19T18:46:36;20.40;99.90
17968;DHT22;9109;48.050;11.696;2022-08-19T18:49:57;20.40;99.90
17968;DHT22;9109;48.050;11.696;2022-08-19T18:53:06;20.40;99.90
17968;DHT22;9109;48.050;11.696;2022-08-19T18:56:09;20.40;99.90
17968;DHT22;9109;48.050;11.696;2022-08-19T18:59:13;20.40;99.90
17968;DHT22;9109;48.050;11.696;2022-08-19T19:02:15;20.40;99.90
17968;DHT22;9109;48.050;11.696;2022-08-19T19:05:19;20.50;99.90
17968;DHT22;9109;48.050;11.696;2022-08-19T19:08:22;20.50;99.90
17968;DHT22;9109;48.050;11.696;2022-08-19T19:11:28;20.40;99.90
17968;DHT22;9109;48.050;11.696;2022-08-19T19:14:34;20.40;99.90
17968;DHT22;9109;48.050;11.696;2022-08-19T19:17:36;20.40;99.90
17968;DHT22;9109;48.050;11.696;2022-08-19T19:20:43;20.30;99.90
17968;DHT22;9109;48.050;11.696;2022-08-19T19:23:45;20.20;99.90
17968;DHT22;9109;48.050;11.696;2022-08-19T19:26:49;20.20;99.90
17968;DHT22;9109;48.050;11.696;2022-08-19T19:29:51;19.90;99.90
17968;DHT22;9109;48.050;11.696;2022-08-19T19:32:54;19.70;99.90
17968;DHT22;9109;48.050;11.696;2022-08-19T19:35:57;19.80;99.90
17968;DHT22;9109;48.050;11.696;2022-08-19T19:38:59;19.70;99.90
17968;DHT22;9109;48.050;11.696;2022-08-19T19:42:16;19.70;99.90
17968;DHT22;9109;48.050;11.696;2022-08-19T19:45:23;19.60;99.90
17968;DHT22;9109;48.050;11.696;2022-08-19T19:48:25;19.50;99.90
17968;DHT22;9109;48.050;11.696;2022-08-19T19:51:30;19.50;99.90
17968;DHT22;9109;48.050;11.696;2022-08-19T19:54:32;19.50;99.90
17968;DHT22;9109;48.050;11.696;2022-08-19T19:57:35;19.50;99.90
17968;DHT22;9109;48.050;11.696;2022-08-19T20:00:38;19.50;99.90
17968;DHT22;9109;48.050;11.696;2022-08-19T20:03:41;19.50;99.90
17968;DHT22;9109;48.050;11.696;2022-08-19T20:06:45;19.50;99.90
17968;DHT22;9109;48.050;11.696;2022-08-19T20:09:47;19.50;99.90
17968;DHT22;9109;48.050;11.696;2022-08-19T20:12:49;19.40;99.90
17968;DHT22;9109;48.050;11.696;2022-08-19T20:15:54;19.40;99.90
17968;DHT22;9109;48.050;11.696;2022-08-19T20:18:57;19.50;99.90
17968;DHT22;9109;48.050;11.696;2022-08-19T20:22:01;19.40;99.90
17968;DHT22;9109;48.050;11.696;2022-08-19T20:25:04;19.30;99.90
17968;DHT22;9109;48.050;11.696;2022-08-19T20:28:06;19.30;99.90
17968;DHT22;9109;48.050;11.696;2022-08-19T20:31:08;19.20;99.90
17968;DHT22;9109;48.050;11.696;2022-08-19T20:34:10;19.30;99.90
17968;DHT22;9109;48.050;11.696;2022-08-19T20:37:15;19.30;99.90
17968;DHT22;9109;48.050;11.696;2022-08-19T20:40:17;19.30;99.90
17968;DHT22;9109;48.050;11.696;2022-08-19T20:43:19;19.20;99.90
17968;DHT22;9109;48.050;11.696;2022-08-19T20:46:21;19.20;99.90
17968;DHT22;9109;48.050;11.696;2022-08-19T20:49:23;19.10;99.90
17968;DHT22;9109;48.050;11.696;2022-08-19T20:52:26;19.10;99.90
17968;DHT22;9109;48.050;11.696;2022-08-19T20:55:29;19.10;99.90
17968;DHT22;9109;48.050;11.696;2022-08-19T20:58:31;19.00;99.90
